Flight Track Log - Related Links

Times and Time Zones

All times are in EDT time to prevent confusion due to time zone crossing. See the CSN6763 flight status page for this flight to view local times or setup timezone preferences in your user account.

Time Position Orientation Groundspeed Altitude Reporting Facility
EDT Latitude Longitude Course Direction KTS MPH feet Rate Location/Type
Thu 02:49:00 AM 22.7547 113.8002 354° North  Level Estimated
Thu 02:50:00 AM 22.8700 113.7880 354° North  Level Estimated
Thu 02:51:00 AM 22.9852 113.7758 354° North  Level Estimated
Thu 02:52:00 AM 23.1005 113.7636 354° North  Level Estimated
Thu 02:53:00 AM 23.2157 113.7514 354° North  Level Estimated
Thu 02:54:00 AM 23.3310 113.7391 354° North  Level Estimated
Thu 02:55:00 AM 23.4462 113.7268 354° North  Level Estimated
Thu 02:56:00 AM 23.5615 113.7145 354° North  Level Estimated
Thu 02:57:00 AM 23.6767 113.7021 354° North  Level Estimated
Thu 02:58:00 AM 23.7888 113.6901 354° North  Level Estimated
Thu 02:59:00 AM 23.9008 113.6781 354° North  Level Estimated
Thu 03:00:00 AM 24.0128 113.6660 354° North  Level Estimated
Thu 03:01:00 AM 24.1249 113.6540 354° North  Level Estimated
Thu 03:02:00 AM 24.2369 113.6419 354° North  Level Estimated
Thu 03:03:00 AM 24.3490 113.6297 354° North  Level Estimated
Thu 03:04:00 AM 24.4610 113.6176 354° North  Level Estimated
Thu 03:05:00 AM 24.5730 113.6054 354° North  Level Estimated
Thu 03:06:00 AM 24.6851 113.5932 354° North  Level Estimated
Thu 03:07:00 AM 24.7971 113.5810 354° North  Level Estimated
Thu 03:08:00 AM 24.9091 113.5688 354° North  Level Estimated
Thu 03:09:00 AM 25.0212 113.5565 354° North  Level Estimated
Thu 03:10:00 AM 25.1332 113.5443 354° North  Level Estimated
Thu 03:11:00 AM 25.2453 113.5320 354° North  Level Estimated
Thu 03:12:00 AM 25.3573 113.5197 354° North  Level Estimated
Thu 03:13:00 AM 25.4693 113.5073 354° North  Level Estimated
Thu 03:14:00 AM 25.5813 113.4949 354° North  Level Estimated
Thu 03:15:00 AM 25.6934 113.4826 354° North  Level Estimated
Thu 03:16:00 AM 25.8054 113.4702 354° North  Level Estimated
Thu 03:17:00 AM 25.9174 113.4577 354° North  Level Estimated
Thu 03:18:00 AM 26.0294 113.4453 354° North  Level Estimated
Thu 03:19:00 AM 26.1415 113.4328 354° North  Level Estimated
Thu 03:20:00 AM 26.2535 113.4203 354° North  Level Estimated
Thu 03:21:00 AM 26.3655 113.4077 354° North  Level Estimated
Thu 03:22:00 AM 26.4775 113.3952 354° North  Level Estimated
Thu 03:23:00 AM 26.5895 113.3826 354° North  Level Estimated
Thu 03:24:00 AM 26.7016 113.3700 354° North  Level Estimated
Thu 03:25:00 AM 26.8136 113.3574 354° North  Level Estimated
Thu 03:26:00 AM 26.9256 113.3447 354° North  Level Estimated
Thu 03:27:00 AM 27.0376 113.3320 354° North  Level Estimated
Thu 03:28:00 AM 27.1496 113.3193 354° North  Level Estimated
Thu 03:29:00 AM 27.2616 113.3066 354° North  Level Estimated
Thu 03:30:00 AM 27.3736 113.2938 354° North  Level Estimated
Thu 03:31:00 AM 27.4856 113.2811 354° North  Level Estimated
Thu 03:32:00 AM 27.5977 113.2682 354° North  Level Estimated
Thu 03:33:00 AM 27.7097 113.2554 354° North  Level Estimated
Thu 03:34:00 AM 27.8217 113.2426 354° North  Level Estimated
Thu 03:35:00 AM 27.9337 113.2297 354° North  Level Estimated
Thu 03:36:00 AM 28.0457 113.2168 354° North  Level Estimated
Thu 03:37:00 AM 28.1577 113.2038 354° North  Level Estimated
Thu 03:38:00 AM 28.2697 113.1908 354° North  Level Estimated
Thu 03:39:00 AM 28.3817 113.1778 354° North  Level Estimated
Thu 03:40:00 AM 28.4937 113.1648 354° North  Level Estimated
Thu 03:41:00 AM 28.6057 113.1518 354° North  Level Estimated
Thu 03:42:00 AM 28.7177 113.1387 354° North  Level Estimated
Thu 03:43:00 AM 28.8297 113.1256 354° North  Level Estimated
Thu 03:44:00 AM 28.9417 113.1125 354° North  Level Estimated
Thu 03:45:00 AM 29.0536 113.0993 354° North  Level Estimated
Thu 03:46:00 AM 29.1656 113.0861 354° North  Level Estimated
Thu 03:47:00 AM 29.2776 113.0729 354° North  Level Estimated
Thu 03:48:00 AM 29.3896 113.0596 354° North  Level Estimated
Thu 03:49:00 AM 29.5016 113.0463 354° North  Level Estimated
Thu 03:50:00 AM 29.6136 113.0331 354° North  Level Estimated
Thu 03:51:00 AM 29.7256 113.0197 354° North  Level Estimated
Thu 03:52:00 AM 29.8376 113.0063 354° North  Level Estimated
Thu 03:53:00 AM 29.9495 112.9929 354° North  Level Estimated
Thu 03:54:00 AM 30.0615 112.9795 354° North  Level Estimated
Thu 03:55:00 AM 30.1735 112.9661 354° North  Level Estimated
Thu 03:56:00 AM 30.2855 112.9526 354° North  Level Estimated
Thu 03:57:00 AM 30.3975 112.9390 354° North  Level Estimated
Thu 03:58:00 AM 30.5094 112.9255 354° North  Level Estimated
Thu 03:59:00 AM 30.6214 112.9119 354° North  Level Estimated
Thu 04:00:00 AM 30.7334 112.8983 354° North  Level Estimated
Thu 04:01:00 AM 30.8454 112.8847 354° North  Level Estimated
Thu 04:02:00 AM 30.9573 112.8710 354° North  Level Estimated
Thu 04:03:00 AM 31.0693 112.8573 354° North  Level Estimated
Thu 04:04:00 AM 31.1812 112.8435 354° North  Level Estimated
Thu 04:05:00 AM 31.2932 112.8298 354° North  Level Estimated
Thu 04:06:00 AM 31.4052 112.8160 354° North  Level Estimated
Thu 04:07:00 AM 31.5171 112.8021 354° North  Level Estimated
Thu 04:08:00 AM 31.6291 112.7882 354° North  Level Estimated
Thu 04:09:00 AM 31.7411 112.7743 354° North  Level Estimated
Thu 04:10:00 AM 31.8530 112.7604 354° North  Level Estimated
Thu 04:11:00 AM 31.9650 112.7464 354° North  Level Estimated
Thu 04:12:00 AM 32.0769 112.7324 354° North  Level Estimated
Thu 04:13:00 AM 32.1889 112.7184 354° North  Level Estimated
Thu 04:14:00 AM 32.3008 112.7043 354° North  Level Estimated
Thu 04:15:00 AM 32.4128 112.6902 354° North  Level Estimated
Thu 04:16:00 AM 32.5247 112.6760 354° North  Level Estimated
Thu 04:17:00 AM 32.6367 112.6619 354° North  Level Estimated
Thu 04:18:00 AM 32.7486 112.6476 354° North  Level Estimated
Thu 04:19:00 AM 32.8606 112.6334 354° North  Level Estimated
Thu 04:20:00 AM 32.9725 112.6191 354° North  Level Estimated
Thu 04:21:00 AM 33.0844 112.6048 354° North  Level Estimated
Thu 04:22:00 AM 33.1964 112.5904 354° North  Level Estimated
Thu 04:23:00 AM 33.3083 112.5760 354° North  Level Estimated
Thu 04:24:00 AM 33.4203 112.5616 354° North  Level Estimated
Thu 04:25:00 AM 33.5322 112.5471 354° North  Level Estimated
Thu 04:26:00 AM 33.6441 112.5326 354° North  Level Estimated
Thu 04:27:00 AM 33.7561 112.5181 354° North  Level Estimated
Thu 04:28:00 AM 33.8680 112.5035 354° North  Level Estimated
Thu 04:29:00 AM 33.9799 112.4888 354° North  Level Estimated
Thu 04:30:00 AM 34.0918 112.4742 354° North  Level Estimated
Thu 04:31:00 AM 34.2038 112.4595 354° North  Level Estimated
Thu 04:32:00 AM 34.3157 112.4447 354° North  Level Estimated
Thu 04:33:00 AM 34.4276 112.4299 354° North  Level Estimated
Thu 04:34:00 AM 34.5395 112.4151 354° North  Level Estimated
Thu 04:35:00 AM 34.6514 112.4003 354° North  Level Estimated
Thu 04:36:00 AM 34.7411 112.3883 354° North  Level Estimated
Thu 04:37:00 AM 34.7411 112.3883 North  Level Estimated
Thu 04:38:00 AM 34.7411 112.3883 North  Level Estimated
Thu 04:39:00 AM 34.7411 112.3883 North  Level Estimated
Thu 04:40:00 AM 34.7411 112.3883 North  Level Estimated
Thu 04:41:00 AM 34.7411 112.3883 North  Level Estimated
Thu 04:42:00 AM 34.7411 112.3883 North  Level Estimated
Thu 04:43:00 AM 34.7411 112.3883 North  Level Estimated
Thu 04:44:00 AM 34.7411 112.3883 North  Level Estimated
Thu 04:45:00 AM 34.7411 112.3883 North  Level Estimated
Thu 04:46:00 AM 34.7411 112.3883 North  Level Estimated
Thu 04:47:00 AM 34.7411 112.3883 North  Level Estimated
Thu 04:48:00 AM 34.7411 112.3883 North  Level Estimated
Thu 04:49:00 AM 34.7411 112.3883 North  Level Estimated
Thu 04:50:00 AM 34.7411 112.3883 North  Level Estimated

Login

Don't have an account? Register now (free) for customized features, flight alerts, and more!